Time;durP1;ratioP1;P1;durP2;ratioP2;P2;SDS_P1;SDS_P2;PMS_P1;PMS_P2;Temp;Humidity;BMP_temperature;BMP_pressure;BME280_temperature;BME280_humidity;BME280_pressure;Samples;Min_cycle;Max_cycle;Signal;HPM_P1;HPM_P2
2021/08/16 00:02:05;;;;;;;11.38;9.00;;;;;;;18.25;66.93;99668.00;4955464;28;20047;-77
2021/08/16 00:04:31;;;;;;;12.13;8.32;;;;;;;18.16;67.41;99663.16;4954136;28;20054;-76
2021/08/16 00:06:56;;;;;;;11.98;9.45;;;;;;;18.13;67.58;99665.91;4954239;29;20427;-75
2021/08/16 00:09:22;;;;;;;14.70;8.35;;;;;;;18.14;67.88;99673.75;4954352;28;20038;-76
2021/08/16 00:11:48;;;;;;;10.32;7.95;;;;;;;18.01;67.90;99669.91;4954810;28;20066;-75
2021/08/16 00:14:14;;;;;;;10.02;7.63;;;;;;;18.02;67.92;99674.25;4955120;28;20094;-75
2021/08/16 00:16:40;;;;;;;13.48;8.25;;;;;;;17.88;67.87;99665.13;4956199;28;20049;-76
2021/08/16 00:19:05;;;;;;;12.13;8.52;;;;;;;17.86;68.46;99663.47;4954704;28;20039;-76
2021/08/16 00:21:31;;;;;;;12.43;9.65;;;;;;;17.76;68.27;99658.59;4953655;29;20047;-77
2021/08/16 00:23:57;;;;;;;9.93;8.20;;;;;;;17.76;68.54;99663.84;4954905;28;20046;-77
2021/08/16 00:26:22;;;;;;;16.38;9.00;;;;;;;17.79;68.61;99680.44;4953366;29;20424;-77
2021/08/16 00:28:48;;;;;;;12.60;8.15;;;;;;;17.54;68.90;99648.09;4950989;29;20134;-76
2021/08/16 00:31:14;;;;;;;12.57;8.82;;;;;;;17.70;68.88;99682.53;4956080;28;20043;-77
2021/08/16 00:33:40;;;;;;;11.15;8.50;;;;;;;17.67;69.02;99682.66;4955989;29;20384;-76
2021/08/16 00:36:06;;;;;;;14.93;8.50;;;;;;;17.61;69.23;99669.75;4955909;28;20102;-75
2021/08/16 00:38:31;;;;;;;10.82;8.32;;;;;;;17.53;69.14;99666.56;4957362;28;20099;-77
2021/08/16 00:40:57;;;;;;;13.20;8.00;;;;;;;17.50;69.53;99675.44;4955299;29;20039;-76
2021/08/16 00:43:23;;;;;;;12.85;8.23;;;;;;;17.30;69.42;99647.31;4955728;29;20053;-75
2021/08/16 00:45:49;;;;;;;12.00;8.38;;;;;;;17.45;70.09;99673.00;4955711;28;20077;-75
2021/08/16 00:48:14;;;;;;;15.05;9.00;;;;;;;17.31;69.66;99654.28;4955230;28;20082;-78
2021/08/16 00:50:41;;;;;;;14.38;8.88;;;;;;;17.33;70.10;99668.19;4955610;28;20043;-76
2021/08/16 00:53:07;;;;;;;15.75;8.80;;;;;;;17.33;70.25;99668.19;4955392;28;20089;-76
2021/08/16 00:55:34;;;;;;;12.20;8.93;;;;;;;17.30;70.47;99673.59;4953452;29;20039;-76
2021/08/16 00:58:03;;;;;;;12.93;8.52;;;;;;;17.30;70.43;99681.47;4954517;28;20095;-77
2021/08/16 01:00:29;;;;;;;16.05;9.70;;;;;;;17.27;70.32;99678.97;4953969;29;20051;-74
2021/08/16 01:02:55;;;;;;;12.25;8.95;;;;;;;17.24;70.92;99677.28;4955106;29;20039;-76
2021/08/16 01:05:20;;;;;;;11.45;8.80;;;;;;;17.22;71.02;99675.66;4956493;28;20058;-76
2021/08/16 01:07:49;;;;;;;15.43;8.85;;;;;;;17.19;71.16;99681.03;4956353;28;20038;-75
2021/08/16 01:10:17;;;;;;;13.93;8.80;;;;;;;17.07;71.18;99672.69;4956130;28;20118;-76
2021/08/16 01:12:43;;;;;;;13.27;8.57;;;;;;;17.13;71.30;99692.63;4978581;28;20050;-75
2021/08/16 01:15:11;;;;;;;13.55;8.50;;;;;;;17.00;71.23;99677.31;4977484;28;20035;-76
2021/08/16 01:17:39;;;;;;;17.65;9.85;;;;;;;16.99;71.59;99685.25;4966373;28;20075;-76
2021/08/16 01:20:10;;;;;;;12.63;9.02;;;;;;;16.97;71.48;99693.22;4953608;29;20533;-75
2021/08/16 01:22:37;;;;;;;15.63;9.38;;;;;;;16.98;71.65;99696.69;4953539;29;20039;-76
2021/08/16 01:25:06;;;;;;;12.02;8.90;;;;;;;16.94;71.89;99692.41;4952668;28;20043;-76
2021/08/16 01:27:32;;;;;;;13.63;8.85;;;;;;;16.85;71.74;99683.97;4933234;28;20040;-75
2021/08/16 01:30:00;;;;;;;15.95;9.63;;;;;;;16.83;71.94;99688.44;4951945;29;20411;-75
2021/08/16 01:32:26;;;;;;;12.25;8.73;;;;;;;16.85;71.92;99697.13;4953761;29;20053;-77
2021/08/16 01:34:52;;;;;;;15.63;9.68;;;;;;;16.78;71.99;99687.75;4956080;28;20035;-77
2021/08/16 01:37:18;;;;;;;12.57;10.07;;;;;;;16.73;72.06;99684.41;4957622;28;20042;-76
2021/08/16 01:39:43;;;;;;;23.23;9.60;;;;;;;16.78;72.36;99702.63;4962473;29;20114;-77
2021/08/16 01:42:09;;;;;;;14.25;9.02;;;;;;;16.75;72.37;99694.88;4953787;28;20039;-77
2021/08/16 01:44:35;;;;;;;15.00;9.00;;;;;;;16.71;72.56;99708.13;4956666;28;20043;-75
2021/08/16 01:47:01;;;;;;;16.17;9.75;;;;;;;16.71;72.93;99708.13;4933562;29;20069;-76
2021/08/16 01:49:26;;;;;;;17.85;9.63;;;;;;;16.61;72.92;99696.22;4934584;29;20051;-76
2021/08/16 01:51:52;;;;;;;15.90;10.48;;;;;;;16.63;72.87;99709.31;4934318;29;20130;-77
2021/08/16 01:54:18;;;;;;;19.17;9.88;;;;;;;16.54;72.92;99700.00;4934560;29;20039;-75
2021/08/16 01:56:44;;;;;;;13.93;10.30;;;;;;;16.48;73.19;99708.91;4933763;29;20480;-75
2021/08/16 01:59:10;;;;;;;12.73;9.48;;;;;;;16.48;73.42;99708.91;4949379;29;20127;-75
2021/08/16 02:01:36;;;;;;;14.68;10.50;;;;;;;16.41;73.73;99696.94;4932760;28;20045;-75
2021/08/16 02:04:02;;;;;;;16.00;9.88;;;;;;;16.47;73.65;99709.81;4933546;29;20112;-76
2021/08/16 02:06:28;;;;;;;12.55;9.48;;;;;;;16.45;73.56;99711.66;4933155;29;20046;-77
2021/08/16 02:08:55;;;;;;;15.45;11.18;;;;;;;16.42;73.92;99706.53;4933175;29;20039;-76
2021/08/16 02:11:21;;;;;;;11.40;10.13;;;;;;;16.32;74.14;99706.00;4934119;29;20044;-76
2021/08/16 02:13:47;;;;;;;14.85;9.90;;;;;;;16.32;74.01;99719.13;4949261;29;20474;-77
2021/08/16 02:16:13;;;;;;;13.02;10.30;;;;;;;16.41;74.32;99731.06;4932447;28;20090;-75
2021/08/16 02:18:39;;;;;;;12.57;10.13;;;;;;;16.42;74.48;99735.41;4933054;29;20135;-77
2021/08/16 02:21:05;;;;;;;15.55;10.25;;;;;;;16.45;74.47;99732.66;4932946;29;20130;-76
2021/08/16 02:23:30;;;;;;;12.35;9.57;;;;;;;16.47;74.50;99720.34;4950444;28;20059;-76
2021/08/16 02:25:56;;;;;;;12.32;9.68;;;;;;;16.51;74.68;99718.47;4937863;29;20043;-75
2021/08/16 02:28:22;;;;;;;14.73;9.85;;;;;;;16.59;74.66;99721.69;4954030;28;20035;-75
2021/08/16 02:30:48;;;;;;;20.40;10.48;;;;;;;16.63;74.65;99725.91;4956207;28;20418;-76
2021/08/16 02:33:15;;;;;;;17.75;9.98;;;;;;;16.55;74.50;99713.06;4971510;28;20097;-75
2021/08/16 02:35:42;;;;;;;16.63;10.00;;;;;;;16.70;74.65;99740.56;4972119;28;20049;-76
2021/08/16 02:38:13;;;;;;;13.95;10.20;;;;;;;16.72;74.59;99740.50;4957386;28;20065;-77
2021/08/16 02:40:41;;;;;;;14.20;10.02;;;;;;;16.75;74.71;99743.00;4956511;28;20085;-75
2021/08/16 02:43:11;;;;;;;16.20;10.15;;;;;;;16.79;74.75;99747.25;4955378;29;20047;-76
2021/08/16 02:45:36;;;;;;;16.70;11.13;;;;;;;16.82;74.61;99755.03;4940218;29;20050;-76
2021/08/16 02:48:02;;;;;;;18.13;10.07;;;;;;;16.79;74.70;99739.38;4954710;29;20047;-76
2021/08/16 02:50:28;;;;;;;12.73;9.43;;;;;;;16.88;74.68;99750.47;4956490;28;20054;-75
2021/08/16 02:52:55;;;;;;;15.90;9.75;;;;;;;16.80;74.78;99742.84;4956079;28;20043;-77
2021/08/16 02:55:21;;;;;;;14.35;9.23;;;;;;;16.96;74.95;99764.22;4956046;28;20038;-76
2021/08/16 02:57:47;;;;;;;15.63;10.85;;;;;;;16.95;74.62;99752.84;4955350;28;20432;-75
2021/08/16 03:00:14;;;;;;;13.07;9.65;;;;;;;17.01;74.69;99759.66;4955965;29;20054;-76
2021/08/16 03:02:42;;;;;;;16.40;10.63;;;;;;;17.06;74.64;99755.09;4956840;28;20050;-76
2021/08/16 03:05:09;;;;;;;12.45;9.57;;;;;;;16.90;74.38;99736.38;4955192;28;20519;-77
2021/08/16 03:07:34;;;;;;;15.30;10.07;;;;;;;16.94;74.20;99747.63;4956671;28;20117;-75
2021/08/16 03:10:00;;;;;;;13.52;9.88;;;;;;;16.96;74.70;99762.47;4955022;29;20108;-76
2021/08/16 03:12:26;;;;;;;14.00;9.40;;;;;;;16.92;74.80;99750.31;4956255;28;20409;-77
2021/08/16 03:14:51;;;;;;;14.13;10.27;;;;;;;16.92;74.82;99758.19;4957689;28;20051;-78
2021/08/16 03:17:17;;;;;;;13.20;9.35;;;;;;;16.97;74.94;99760.69;4963808;28;20015;-77
2021/08/16 03:19:43;;;;;;;13.45;9.40;;;;;;;16.88;75.07;99734.72;4979235;28;20027;-77
2021/08/16 03:22:09;;;;;;;15.77;9.63;;;;;;;17.02;74.80;99743.81;4971113;29;20039;-77
2021/08/16 03:24:34;;;;;;;17.40;11.13;;;;;;;17.15;74.94;99753.91;4962199;29;20046;-77
2021/08/16 03:27:00;;;;;;;19.15;10.48;;;;;;;17.26;74.75;99767.50;4952321;29;20046;-76
2021/08/16 03:29:26;;;;;;;13.88;10.20;;;;;;;17.29;74.75;99769.16;4936747;29;20130;-77
2021/08/16 03:31:52;;;;;;;13.10;10.35;;;;;;;17.42;74.99;99772.19;4957725;29;20424;-76
2021/08/16 03:34:18;;;;;;;16.02;10.00;;;;;;;17.41;74.75;99762.59;4973062;28;20135;-77
2021/08/16 03:36:44;;;;;;;14.82;10.40;;;;;;;17.66;74.85;99783.56;4974394;28;20377;-77
2021/08/16 03:39:10;;;;;;;13.73;9.82;;;;;;;17.78;74.65;99784.84;4965067;28;20090;-75
2021/08/16 03:41:36;;;;;;;11.63;9.50;;;;;;;17.81;74.70;99762.81;4939434;29;20035;-76
2021/08/16 03:44:02;;;;;;;15.95;9.70;;;;;;;17.92;74.50;99752.72;4970670;28;20063;-79
2021/08/16 03:46:28;;;;;;;14.23;9.43;;;;;;;18.08;74.47;99763.53;4938599;29;20031;-75
2021/08/16 03:48:54;;;;;;;12.02;8.90;;;;;;;18.20;74.05;99765.66;4956162;28;20154;-77
2021/08/16 03:51:27;;;;;;;11.23;9.23;;;;;;;18.41;73.96;99772.75;4955271;28;20082;-76
2021/08/16 03:53:58;;;;;;;16.65;9.38;;;;;;;18.57;73.86;99779.06;4955120;28;20055;-77
2021/08/16 03:56:24;;;;;;;14.52;9.50;;;;;;;18.70;73.46;99781.16;4938222;29;20035;-78
2021/08/16 03:58:50;;;;;;;14.63;10.10;;;;;;;18.75;73.26;99768.66;4956161;28;20471;-79
2021/08/16 04:01:16;;;;;;;14.50;10.00;;;;;;;19.01;72.98;99787.78;4956109;28;20051;-77
2021/08/16 04:03:43;;;;;;;16.52;10.95;;;;;;;19.07;72.78;99784.88;4940003;28;20082;-77
2021/08/16 04:06:26;;;;;;;16.55;10.15;;;;;;;19.30;72.70;99796.19;4956715;28;20054;-81
2021/08/16 04:08:52;;;;;;;13.20;9.77;;;;;;;19.36;72.17;99783.56;4940324;29;20494;-79
2021/08/16 04:11:18;;;;;;;10.98;9.20;;;;;;;19.66;71.89;99798.88;4956488;28;20043;-77
2021/08/16 04:13:44;;;;;;;13.35;9.63;;;;;;;19.81;71.24;99804.38;4955468;29;20127;-79
2021/08/16 04:16:10;;;;;;;13.52;9.43;;;;;;;19.88;70.89;99804.97;4955283;29;20467;-82
2021/08/16 04:18:36;;;;;;;11.55;8.15;;;;;;;19.92;70.41;99783.63;4954326;29;20043;-81
2021/08/16 04:21:03;;;;;;;13.27;8.55;;;;;;;20.17;70.82;99795.66;4956274;28;20043;-78
2021/08/16 04:23:32;;;;;;;11.82;8.13;;;;;;;20.30;70.36;99790.63;4955717;28;20042;-82
2021/08/16 04:25:57;;;;;;;14.02;9.00;;;;;;;20.53;69.61;99799.19;4955973;29;20458;-78
2021/08/16 04:28:23;;;;;;;16.30;8.40;;;;;;;20.77;68.95;99812.97;4953405;28;20126;-77
2021/08/16 04:30:49;;;;;;;11.35;8.45;;;;;;;20.88;68.84;99794.78;4957078;28;20039;-78
2021/08/16 04:33:15;;;;;;;13.80;8.90;;;;;;;21.18;68.22;99809.09;4939251;29;20069;-78
2021/08/16 04:35:41;;;;;;;16.27;9.43;;;;;;;21.32;68.34;99805.72;4957711;28;20102;-78
2021/08/16 04:38:12;;;;;;;12.52;8.60;;;;;;;21.46;67.42;99799.69;4938475;29;20074;-78
2021/08/16 04:40:38;;;;;;;16.88;8.68;;;;;;;21.70;67.23;99799.31;4955191;29;20067;-77
2021/08/16 04:43:04;;;;;;;19.10;8.68;;;;;;;21.80;66.73;99789.91;4954392;29;20047;-79
2021/08/16 04:45:30;;;;;;;12.70;8.20;;;;;;;22.12;66.25;99801.34;4937560;29;20043;-75
2021/08/16 04:47:58;;;;;;;10.70;7.53;;;;;;;22.38;65.58;99795.50;4954941;28;20046;-76
2021/08/16 04:50:25;;;;;;;10.95;7.65;;;;;;;22.41;65.14;99758.19;4953723;28;20047;-79
2021/08/16 04:53:07;;;;;;;9.85;7.38;;;;;;;22.59;64.66;99742.19;4954107;29;20070;-77
2021/08/16 04:56:28;;;;;;;10.68;7.10;;;;;;;23.15;63.78;99788.25;4969955;28;20102;-76
2021/08/16 04:59:29;;;;;;;10.15;7.50;;;;;;;23.24;63.30;99762.97;4956676;29;20044;-77
2021/08/16 05:01:56;;;;;;;10.43;7.53;;;;;;;22.88;62.57;99644.94;4956952;28;20042;-79
2021/08/16 05:04:27;;;;;;;11.27;7.65;;;;;;;24.05;61.81;99785.31;4955280;28;20054;-77
2021/08/16 05:06:59;;;;;;;;;;;;;;;24.24;61.32;99784.09;4954311;29;20558;-78
2021/08/16 05:09:39;;;;;;;12.07;7.75;;;;;;;24.15;60.79;99743.03;4969932;28;19918;-77
2021/08/16 05:12:11;;;;;;;10.45;7.22;;;;;;;24.36;59.98;99755.84;4953957;28;20051;-77
2021/08/16 05:14:36;;;;;;;11.20;6.97;;;;;;;24.64;59.53;99760.13;4955424;28;20499;-78
2021/08/16 05:17:02;;;;;;;12.55;6.80;;;;;;;24.79;59.12;99765.41;4949284;28;20065;-78
2021/08/16 05:19:28;;;;;;;15.60;7.60;;;;;;;25.02;58.63;99765.63;4934483;29;20055;-77
2021/08/16 05:22:01;;;;;;;11.77;7.28;;;;;;;25.32;58.26;99769.72;4959954;29;20062;-76
2021/08/16 05:24:39;;;;;;;8.82;6.97;;;;;;;25.54;57.45;99769.91;4971570;28;20051;-76
2021/08/16 05:27:08;;;;;;;11.38;6.90;;;;;;;26.11;56.36;99780.03;4973896;28;20047;-76
2021/08/16 05:29:40;;;;;;;8.20;7.07;;;;;;;25.98;54.74;99644.16;4945410;28;20034;-77
2021/08/16 05:32:12;;;;;;;8.60;6.68;;;;;;;27.10;54.69;99649.78;4957978;29;20043;-76
2021/08/16 05:34:39;;;;;;;10.55;6.35;;;;;;;29.30;51.79;99773.19;4969130;29;20047;-77
2021/08/16 05:37:23;;;;;;;9.52;6.95;;;;;;;30.67;49.83;99773.50;4957791;28;20046;-77
2021/08/16 05:39:52;;;;;;;12.32;6.72;;;;;;;31.12;46.89;99656.44;4956455;28;20051;-77
2021/08/16 05:42:17;;;;;;;6.85;5.85;;;;;;;32.70;44.71;99745.63;4954712;29;20047;-78
2021/08/16 05:44:44;;;;;;;7.28;5.53;;;;;;;33.55;41.95;99750.28;4938128;28;20043;-76
2021/08/16 05:47:13;;;;;;;10.02;6.07;;;;;;;34.73;39.90;99736.69;4954022;29;20050;-77
2021/08/16 05:49:38;;;;;;;8.77;5.63;;;;;;;35.94;36.92;99731.88;4952814;29;20423;-77
2021/08/16 05:52:07;;;;;;;7.03;5.53;;;;;;;36.56;35.72;99729.19;4936508;28;20043;-75
2021/08/16 05:54:44;;;;;;;8.73;5.65;;;;;;;37.43;33.64;99735.81;4952980;28;20074;-78
2021/08/16 05:57:27;;;;;;;8.32;5.95;;;;;;;37.93;31.64;99767.66;4952875;28;20043;-77
2021/08/16 06:00:18;;;;;;;8.27;5.07;;;;;;;38.32;30.63;99652.25;4939677;29;20580;-77
2021/08/16 06:02:50;;;;;;;10.20;5.40;;;;;;;39.34;29.48;99686.25;4971689;28;20035;-79
2021/08/16 06:05:22;;;;;;;9.00;5.75;;;;;;;40.20;27.86;99658.28;4940078;29;20628;-77
2021/08/16 06:07:51;;;;;;;6.28;4.63;;;;;;;41.47;26.50;99720.78;4954609;29;20046;-77
2021/08/16 06:10:16;;;;;;;7.50;5.20;;;;;;;42.33;25.67;99739.50;4956856;28;20526;-77
2021/08/16 06:12:42;;;;;;;8.23;5.80;;;;;;;43.04;23.94;99748.25;4972090;28;20062;-77
2021/08/16 06:15:09;;;;;;;7.35;4.78;;;;;;;43.86;23.53;99768.00;4955263;29;20058;-76
2021/08/16 06:17:44;;;;;;;5.90;4.88;;;;;;;44.61;21.58;99765.72;4955211;29;20039;-78
2021/08/16 06:20:13;;;;;;;6.53;4.70;;;;;;;45.23;20.93;99759.66;4955874;29;20047;-75
2021/08/16 06:22:39;;;;;;;8.52;5.07;;;;;;;45.80;20.29;99747.00;4955691;29;20491;-75
2021/08/16 06:25:06;;;;;;;8.98;5.45;;;;;;;46.33;19.22;99760.50;4955611;29;20046;-77
2021/08/16 06:27:32;;;;;;;8.77;5.40;;;;;;;46.51;19.29;99767.69;4945189;29;20106;-77
2021/08/16 06:29:59;;;;;;;5.75;4.80;;;;;;;46.84;18.69;99770.63;4953781;29;20035;-77
2021/08/16 06:32:32;;;;;;;6.18;5.03;;;;;;;47.03;18.45;99776.63;4954910;28;20047;-78
2021/08/16 06:35:05;;;;;;;6.07;5.07;;;;;;;47.55;17.11;99779.97;4955580;29;20044;-80
2021/08/16 06:37:31;;;;;;;6.78;5.40;;;;;;;47.44;16.81;99785.38;4956786;28;20113;-77
2021/08/16 06:39:57;;;;;;;5.45;4.95;;;;;;;46.99;16.44;99773.56;4939478;29;20043;-79
2021/08/16 06:42:23;;;;;;;8.35;4.57;;;;;;;46.97;15.86;99772.16;4957834;29;20493;-78
2021/08/16 06:44:52;;;;;;;10.50;4.68;;;;;;;47.78;15.91;99774.16;4956502;28;20543;-77
2021/08/16 06:47:18;;;;;;;7.13;4.87;;;;;;;48.39;15.33;99772.19;4955944;29;20039;-77
2021/08/16 06:49:44;;;;;;;7.45;4.97;;;;;;;48.59;14.51;99773.41;4940774;29;20062;-76
2021/08/16 06:52:17;;;;;;;7.50;5.38;;;;;;;48.38;15.05;99767.78;4957532;28;20058;-79
2021/08/16 06:54:48;;;;;;;8.27;4.70;;;;;;;47.87;14.81;99765.44;4972398;28;20686;-77
2021/08/16 07:00:30;;;;;;;7.72;4.70;;;;;;;46.05;15.78;99769.69;4963732;28;20046;-76
2021/08/16 07:02:58;;;;;;;6.63;4.88;;;;;;;45.53;15.90;99764.09;4939475;29;20276;-76
2021/08/16 07:05:30;;;;;;;6.55;4.60;;;;;;;45.51;15.79;99754.44;4954764;29;20045;-76
2021/08/16 07:07:58;;;;;;;5.80;4.80;;;;;;;44.59;16.94;99776.94;4955971;28;20133;-77
2021/08/16 07:10:27;;;;;;;7.10;4.75;;;;;;;43.68;17.33;99731.44;4955252;28;20101;-78
2021/08/16 07:12:53;;;;;;;6.97;5.03;;;;;;;43.57;17.47;99782.31;4939108;29;20047;-76
2021/08/16 07:15:24;;;;;;;9.05;4.53;;;;;;;43.79;17.94;99762.66;4970691;28;20533;-77
2021/08/16 07:17:51;;;;;;;7.75;4.75;;;;;;;43.97;17.54;99753.53;4954389;29;20047;-80
2021/08/16 07:20:17;;;;;;;8.35;5.32;;;;;;;44.36;16.99;99756.66;4954517;29;20054;-76
2021/08/16 07:22:43;;;;;;;8.45;4.57;;;;;;;44.96;16.73;99767.63;4973217;28;20051;-77
2021/08/16 07:25:12;;;;;;;7.30;4.72;;;;;;;45.26;16.37;99764.69;4970273;29;20043;-76
2021/08/16 07:27:38;;;;;;;7.82;4.85;;;;;;;45.63;16.26;99776.34;4973146;29;20071;-76
2021/08/16 07:30:04;;;;;;;6.20;4.25;;;;;;;46.08;15.53;99777.44;4972941;29;20065;-71
2021/08/16 07:32:30;;;;;;;6.28;4.30;;;;;;;46.15;15.17;99786.34;4968316;28;20098;-78
2021/08/16 07:34:59;;;;;;;7.67;4.23;;;;;;;46.97;14.48;99789.50;4955952;29;20043;-79
2021/08/16 07:37:25;;;;;;;7.45;4.30;;;;;;;47.72;13.64;99779.91;4956546;28;20061;-76
2021/08/16 07:39:59;;;;;;;6.38;4.30;;;;;;;48.24;13.29;99772.88;4954744;29;20179;-78
2021/08/16 07:42:26;;;;;;;5.18;4.28;;;;;;;48.88;13.01;99779.34;4955404;28;20047;-76
2021/08/16 07:44:54;;;;;;;7.65;5.05;;;;;;;49.17;12.29;99756.00;4954546;28;20039;-77
2021/08/16 07:47:20;;;;;;;5.25;4.70;;;;;;;48.77;12.49;99778.47;4954736;29;20126;-79
2021/08/16 07:49:45;;;;;;;8.27;5.00;;;;;;;49.38;12.12;99767.94;4955045;28;20078;-78
2021/08/16 07:52:18;;;;;;;9.35;4.53;;;;;;;50.48;11.46;99773.22;4940416;29;20046;-82
2021/08/16 07:54:46;;;;;;;6.25;4.63;;;;;;;51.23;11.42;99786.25;4955211;29;20040;-78
2021/08/16 07:57:13;;;;;;;6.40;4.43;;;;;;;51.41;10.77;99775.63;4955783;28;20518;-79
2021/08/16 07:59:39;;;;;;;7.10;4.80;;;;;;;52.03;10.35;99782.69;4956736;28;20419;-77
2021/08/16 08:02:05;;;;;;;10.65;4.65;;;;;;;52.33;10.43;99772.41;4957198;29;20047;-80
2021/08/16 08:04:40;;;;;;;6.28;4.57;;;;;;;52.51;9.99;99765.25;4954892;29;20031;-79
2021/08/16 08:07:06;;;;;;;5.05;3.83;;;;;;;52.35;10.29;99779.31;4952957;29;20047;-78
2021/08/16 08:09:35;;;;;;;4.63;4.22;;;;;;;52.32;9.63;99770.75;4954812;28;20070;-79
2021/08/16 08:12:12;;;;;;;8.52;4.35;;;;;;;52.38;9.35;99761.25;4954167;29;20047;-76
2021/08/16 08:14:38;;;;;;;6.78;3.90;;;;;;;52.37;9.22;99765.97;4953955;29;20050;-78
2021/08/16 08:17:06;;;;;;;7.25;4.57;;;;;;;52.72;8.80;99777.78;4969686;28;20471;-77
2021/08/16 08:19:32;;;;;;;7.57;3.72;;;;;;;52.26;9.04;99715.34;4955738;28;20055;-79
2021/08/16 08:21:58;;;;;;;5.68;3.70;;;;;;;52.50;8.65;99738.63;4969721;28;20047;-77
2021/08/16 08:24:29;;;;;;;5.25;4.25;;;;;;;52.42;8.72;99688.22;4955403;29;20043;-77
2021/08/16 08:27:06;;;;;;;8.25;4.20;;;;;;;52.98;8.23;99771.94;4951283;28;20040;-77
2021/08/16 08:29:56;;;;;;;5.88;4.20;;;;;;;52.34;9.17;99746.31;4953960;29;20138;-77
2021/08/16 08:32:51;;;;;;;7.43;4.00;;;;;;;51.42;8.94;99680.31;4957739;28;20133;-77
2021/08/16 08:35:24;;;;;;;6.47;3.70;;;;;;;51.69;9.05;99756.59;4953016;28;20043;-78
2021/08/16 08:38:18;;;;;;;4.47;3.80;;;;;;;50.85;9.21;99747.13;4953124;28;20041;-78
2021/08/16 08:41:12;;;;;;;6.75;3.97;;;;;;;47.98;10.65;99656.13;4955106;28;20050;-78
2021/08/16 08:43:45;;;;;;;5.57;4.15;;;;;;;46.42;11.95;99755.44;4953291;29;20051;-77
2021/08/16 08:46:56;;;;;;;5.22;3.45;;;;;;;46.00;12.79;99737.44;4948928;29;20082;-75
2021/08/16 08:50:07;;;;;;;4.65;4.00;;;;;;;46.30;12.61;99634.56;4954194;28;20471;-76
2021/08/16 08:52:36;;;;;;;5.45;3.90;;;;;;;47.73;11.97;99701.66;4938278;28;20166;-77
2021/08/16 08:55:14;;;;;;;;;;;;;;;;;;;;;
2021/08/16 08:57:47;;;;;;;5.47;3.85;;;;;;;48.87;10.73;99670.06;4940208;28;20098;-77
2021/08/16 09:00:16;;;;;;;6.68;4.28;;;;;;;49.89;10.73;99745.91;4954582;29;20079;-75
2021/08/16 09:02:54;;;;;;;6.45;4.15;;;;;;;50.64;10.69;99738.06;4955766;28;20047;-78
2021/08/16 09:05:20;;;;;;;4.97;4.00;;;;;;;50.39;10.37;99727.88;4952435;29;20515;-76
2021/08/16 09:08:03;;;;;;;6.40;3.95;;;;;;;50.10;9.96;99734.00;4952204;29;20086;-75
2021/08/16 09:10:29;;;;;;;6.00;3.97;;;;;;;49.06;11.05;99742.19;4953344;28;20601;-79
2021/08/16 09:12:57;;;;;;;4.43;3.65;;;;;;;48.29;11.33;99742.59;4953349;28;20042;-79
2021/08/16 09:15:29;;;;;;;6.03;3.70;;;;;;;47.17;11.55;99741.28;4969446;28;20145;-76
2021/08/16 09:18:02;;;;;;;8.18;3.42;;;;;;;46.60;12.06;99749.63;4970849;28;20122;-79
2021/08/16 09:20:33;;;;;;;5.22;3.28;;;;;;;45.89;12.43;99725.47;4966968;28;20039;-76
2021/08/16 09:23:04;;;;;;;4.72;3.47;;;;;;;45.51;12.28;99732.47;4972459;28;20074;-75
2021/08/16 09:25:38;;;;;;;4.75;3.65;;;;;;;45.48;12.34;99722.81;4978994;28;20039;-74
2021/08/16 09:28:08;;;;;;;6.80;3.83;;;;;;;45.21;13.05;99745.34;4970651;28;20062;-78
2021/08/16 09:30:41;;;;;;;3.63;3.22;;;;;;;44.80;13.46;99752.72;4965768;28;20047;-77
2021/08/16 09:33:22;;;;;;;6.25;4.00;;;;;;;44.90;13.45;99743.91;4951571;28;20114;-77
2021/08/16 09:35:58;;;;;;;4.30;3.90;;;;;;;44.06;13.50;99743.91;4971317;29;20063;-74
2021/08/16 09:38:43;;;;;;;4.22;3.70;;;;;;;42.62;15.03;99759.00;4936203;28;20043;-76
2021/08/16 09:41:23;;;;;;;7.20;4.13;;;;;;;41.72;15.53;99755.50;4953137;28;20035;-79
2021/08/16 09:43:50;;;;;;;7.05;4.43;;;;;;;40.76;16.38;99732.38;4954552;28;20475;-76
2021/08/16 09:46:18;;;;;;;6.80;4.13;;;;;;;41.50;16.37;99714.88;4953020;28;20031;-77
2021/08/16 09:48:58;;;;;;;6.30;4.40;;;;;;;43.17;15.37;99742.59;4951909;28;20161;-79
2021/08/16 09:51:25;;;;;;;6.88;4.15;;;;;;;43.88;14.92;99741.22;4951582;29;20105;-75
2021/08/16 09:53:57;;;;;;;8.57;4.13;;;;;;;43.59;14.93;99722.69;4951832;29;20451;-78
2021/08/16 09:56:23;;;;;;;5.75;3.67;;;;;;;43.88;14.67;99724.78;4933935;29;20192;-78
2021/08/16 09:58:50;;;;;;;6.35;3.88;;;;;;;44.25;14.25;99741.03;4951172;29;20047;-77
2021/08/16 10:01:16;;;;;;;7.60;4.07;;;;;;;43.74;14.72;99752.41;4951534;28;20035;-77
2021/08/16 10:03:43;;;;;;;4.65;3.88;;;;;;;44.37;14.70;99746.53;4953431;29;20059;-79
2021/08/16 10:06:13;;;;;;;5.55;4.00;;;;;;;44.84;14.07;99740.19;4953169;29;20078;-79
2021/08/16 10:09:10;;;;;;;6.55;4.47;;;;;;;45.72;13.56;99744.69;4952115;29;20043;-78
2021/08/16 10:11:36;;;;;;;4.68;3.88;;;;;;;46.98;13.10;99744.38;4957729;28;20129;-78
2021/08/16 10:14:05;;;;;;;6.57;4.25;;;;;;;46.79;12.54;99745.75;4951422;29;20149;-76
2021/08/16 10:16:39;;;;;;;4.88;3.80;;;;;;;47.00;12.28;99747.69;4951204;29;20487;-78
2021/08/16 10:19:23;;;;;;;7.30;4.22;;;;;;;46.71;12.55;99749.78;4953110;29;20519;-76
2021/08/16 10:21:54;;;;;;;13.40;4.18;;;;;;;46.68;12.38;99744.78;4954192;28;20179;-77
2021/08/16 10:24:26;;;;;;;6.00;4.30;;;;;;;46.15;12.71;99737.72;4950521;28;20050;-77
2021/08/16 10:27:00;;;;;;;5.47;3.83;;;;;;;46.05;12.77;99743.03;4947169;28;20459;-78
2021/08/16 10:29:31;;;;;;;5.82;4.20;;;;;;;46.49;12.72;99738.75;4948111;29;20059;-76
2021/08/16 10:31:59;;;;;;;5.38;3.70;;;;;;;47.54;12.49;99732.34;4935409;29;20094;-76
2021/08/16 10:34:40;;;;;;;5.22;3.75;;;;;;;47.67;11.47;99725.59;4936512;29;20511;-80
2021/08/16 10:37:11;;;;;;;6.50;4.00;;;;;;;46.98;12.21;99749.88;4936898;29;20070;-78
2021/08/16 10:39:47;;;;;;;9.57;3.97;;;;;;;45.90;12.50;99731.78;4967498;28;20081;-76
2021/08/16 10:42:31;;;;;;;6.80;3.50;;;;;;;43.70;13.86;99744.91;4941540;29;20431;-78
2021/08/16 10:45:55;;;;;;;;;;;;;;;;;;;;;
2021/08/16 10:48:41;;;;;;;6.75;3.55;;;;;;;39.81;15.98;99744.38;4956615;28;20045;-78
2021/08/16 10:51:14;;;;;;;4.88;3.58;;;;;;;38.60;16.89;99708.47;4939982;29;20134;-79
2021/08/16 10:53:57;;;;;;;7.22;3.63;;;;;;;37.86;17.68;99735.00;4955279;29;20127;-79
2021/08/16 10:56:26;;;;;;;5.82;3.95;;;;;;;37.06;18.58;99727.63;4937625;29;20095;-78
2021/08/16 10:58:52;;;;;;;7.30;4.32;;;;;;;36.58;19.51;99738.81;4938255;29;20043;-77
2021/08/16 11:01:39;;;;;;;7.97;4.05;;;;;;;35.92;19.99;99735.81;4953921;29;20094;-79
2021/08/16 11:04:08;;;;;;;5.18;3.90;;;;;;;35.47;20.72;99730.19;4951584;29;20494;-80
2021/08/16 11:06:36;;;;;;;5.95;4.03;;;;;;;35.31;20.76;99729.22;4956890;28;20529;-79
2021/08/16 11:09:06;;;;;;;9.18;4.22;;;;;;;35.11;21.39;99726.97;4956694;29;20066;-79
2021/08/16 11:11:52;;;;;;;6.68;3.70;;;;;;;34.07;21.99;99652.06;4956250;29;20074;-78
2021/08/16 11:14:24;;;;;;;5.18;3.75;;;;;;;33.93;22.78;99718.34;4958937;28;20051;-79
2021/08/16 11:17:07;;;;;;;6.88;3.65;;;;;;;33.75;23.42;99742.75;4964302;28;20039;-79
2021/08/16 11:19:44;;;;;;;3.90;3.40;;;;;;;33.20;23.30;99682.09;4975402;28;20046;-77
2021/08/16 11:22:11;;;;;;;6.18;3.90;;;;;;;33.30;23.72;99730.47;4951840;29;20042;-80
2021/08/16 11:24:40;;;;;;;4.43;3.58;;;;;;;32.93;23.83;99673.25;4960147;29;20070;-79
2021/08/16 11:27:16;;;;;;;5.47;3.42;;;;;;;32.70;23.90;99668.41;4957395;28;20039;-80
2021/08/16 11:29:42;;;;;;;6.68;3.53;;;;;;;32.77;24.26;99729.72;4963096;28;20043;-76
2021/08/16 11:32:08;;;;;;;6.30;3.40;;;;;;;32.34;24.84;99706.19;4970033;29;20054;-75
2021/08/16 11:34:53;;;;;;;4.30;3.50;;;;;;;32.35;24.87;99718.66;4974347;28;20043;-76
2021/08/16 11:37:20;;;;;;;3.67;3.30;;;;;;;32.20;24.93;99712.13;4948580;29;20051;-77
2021/08/16 11:39:51;;;;;;;5.45;3.38;;;;;;;32.17;25.12;99723.19;4946154;29;20044;-80
2021/08/16 11:42:21;;;;;;;;;;;;;;;32.06;25.60;99714.38;4936629;29;20134;-80
2021/08/16 11:45:05;;;;;;;4.80;3.50;;;;;;;31.93;25.62;99703.16;4952338;29;19922;-76
2021/08/16 11:47:33;;;;;;;6.70;3.88;;;;;;;31.75;25.45;99711.25;4953416;29;20129;-76
2021/08/16 11:50:07;;;;;;;5.10;3.78;;;;;;;31.62;25.69;99725.88;4955526;29;20416;-77